sensor_id;sensor_type;location;lat;lon;timestamp;pressure;altitude;pressure_sealevel;temperature;humidity
71996;BME280;59862;47.732;7.346;2023-04-01T00:01:57;97085.21;;;6.46;92.77
71996;BME280;59862;47.732;7.346;2023-04-01T00:04:25;97086.73;;;6.45;92.50
71996;BME280;59862;47.732;7.346;2023-04-01T00:06:52;97079.13;;;6.38;92.12
71996;BME280;59862;47.732;7.346;2023-04-01T00:09:20;97089.09;;;6.40;91.86
71996;BME280;59862;47.732;7.346;2023-04-01T00:11:47;97096.74;;;6.43;91.52
71996;BME280;59862;47.732;7.346;2023-04-01T00:14:15;97098.72;;;6.45;91.35
71996;BME280;59862;47.732;7.346;2023-04-01T00:16:43;97094.34;;;6.48;91.36
71996;BME280;59862;47.732;7.346;2023-04-01T00:19:10;97097.95;;;6.55;91.50
71996;BME280;59862;47.732;7.346;2023-04-01T00:21:38;97091.14;;;6.52;91.63
71996;BME280;59862;47.732;7.346;2023-04-01T00:24:06;97085.86;;;6.48;91.78
71996;BME280;59862;47.732;7.346;2023-04-01T00:26:34;97068.72;;;6.47;91.97
71996;BME280;59862;47.732;7.346;2023-04-01T00:29:01;97070.66;;;6.53;92.09
71996;BME280;59862;47.732;7.346;2023-04-01T00:31:28;97068.48;;;6.52;92.04
71996;BME280;59862;47.732;7.346;2023-04-01T00:33:56;97064.34;;;6.54;92.08
71996;BME280;59862;47.732;7.346;2023-04-01T00:36:23;97060.60;;;6.59;92.16
71996;BME280;59862;47.732;7.346;2023-04-01T00:38:51;97050.73;;;6.63;92.28
71996;BME280;59862;47.732;7.346;2023-04-01T00:41:19;97049.89;;;6.63;92.23
71996;BME280;59862;47.732;7.346;2023-04-01T00:43:49;97047.02;;;6.68;91.95
71996;BME280;59862;47.732;7.346;2023-04-01T00:46:18;97045.45;;;6.74;91.56
71996;BME280;59862;47.732;7.346;2023-04-01T00:48:51;97045.59;;;6.76;91.23
71996;BME280;59862;47.732;7.346;2023-04-01T00:51:27;97038.72;;;6.82;90.81
71996;BME280;59862;47.732;7.346;2023-04-01T00:53:52;97039.86;;;6.83;90.41
71996;BME280;59862;47.732;7.346;2023-04-01T00:56:30;97045.89;;;6.81;90.29
71996;BME280;59862;47.732;7.346;2023-04-01T00:59:00;97048.81;;;6.86;90.25
71996;BME280;59862;47.732;7.346;2023-04-01T01:01:28;97045.98;;;6.88;89.58
71996;BME280;59862;47.732;7.346;2023-04-01T01:03:57;97033.93;;;6.92;89.11
71996;BME280;59862;47.732;7.346;2023-04-01T01:06:37;97037.19;;;6.98;88.70
71996;BME280;59862;47.732;7.346;2023-04-01T01:09:11;97045.23;;;6.94;88.62
71996;BME280;59862;47.732;7.346;2023-04-01T01:11:43;97032.24;;;6.95;88.76
71996;BME280;59862;47.732;7.346;2023-04-01T01:14:19;97031.07;;;6.94;88.57
71996;BME280;59862;47.732;7.346;2023-04-01T01:16:48;97032.95;;;6.89;88.82
71996;BME280;59862;47.732;7.346;2023-04-01T01:28:17;97027.86;;;6.83;88.35
71996;BME280;59862;47.732;7.346;2023-04-01T01:30:48;97054.83;;;6.84;88.40
71996;BME280;59862;47.732;7.346;2023-04-01T01:33:18;97043.57;;;6.93;87.38
71996;BME280;59862;47.732;7.346;2023-04-01T01:35:54;97047.95;;;6.90;87.39
71996;BME280;59862;47.732;7.346;2023-04-01T01:38:26;97043.17;;;6.85;87.95
71996;BME280;59862;47.732;7.346;2023-04-01T01:40:54;97038.34;;;6.85;88.08
71996;BME280;59862;47.732;7.346;2023-04-01T01:43:35;97050.38;;;6.81;88.47
71996;BME280;59862;47.732;7.346;2023-04-01T01:46:00;97028.77;;;6.76;88.88
71996;BME280;59862;47.732;7.346;2023-04-01T01:48:29;97024.12;;;6.74;89.02
71996;BME280;59862;47.732;7.346;2023-04-01T01:50:58;97028.31;;;6.72;89.12
71996;BME280;59862;47.732;7.346;2023-04-01T01:53:26;97015.13;;;6.75;89.22
71996;BME280;59862;47.732;7.346;2023-04-01T01:55:53;97018.25;;;6.78;89.10
71996;BME280;59862;47.732;7.346;2023-04-01T01:58:23;97031.08;;;6.79;88.65
71996;BME280;59862;47.732;7.346;2023-04-01T02:00:53;97009.39;;;6.82;88.83
71996;BME280;59862;47.732;7.346;2023-04-01T02:03:24;97012.06;;;6.82;88.53
71996;BME280;59862;47.732;7.346;2023-04-01T02:05:55;97010.39;;;6.81;88.14
71996;BME280;59862;47.732;7.346;2023-04-01T02:08:41;97012.27;;;6.91;87.72
71996;BME280;59862;47.732;7.346;2023-04-01T02:11:11;97023.55;;;6.97;87.30
71996;BME280;59862;47.732;7.346;2023-04-01T02:13:48;97016.49;;;7.00;86.50
71996;BME280;59862;47.732;7.346;2023-04-01T02:16:21;97030.06;;;7.09;85.13
71996;BME280;59862;47.732;7.346;2023-04-01T02:18:50;97017.42;;;7.07;85.07
71996;BME280;59862;47.732;7.346;2023-04-01T02:21:22;97020.22;;;7.10;84.66
71996;BME280;59862;47.732;7.346;2023-04-01T02:23:52;97011.75;;;7.06;85.10
71996;BME280;59862;47.732;7.346;2023-04-01T02:26:21;97015.30;;;7.03;85.10
71996;BME280;59862;47.732;7.346;2023-04-01T02:28:51;97022.95;;;7.06;84.56
71996;BME280;59862;47.732;7.346;2023-04-01T02:31:20;97031.59;;;7.08;83.81
71996;BME280;59862;47.732;7.346;2023-04-01T02:33:49;97024.72;;;7.09;83.69
71996;BME280;59862;47.732;7.346;2023-04-01T02:36:17;97029.72;;;7.08;83.05
71996;BME280;59862;47.732;7.346;2023-04-01T02:38:45;97027.20;;;7.11;82.26
71996;BME280;59862;47.732;7.346;2023-04-01T02:41:14;97051.89;;;7.09;83.10
71996;BME280;59862;47.732;7.346;2023-04-01T02:43:41;97037.22;;;7.09;83.04
71996;BME280;59862;47.732;7.346;2023-04-01T02:46:08;97051.50;;;7.01;83.89
71996;BME280;59862;47.732;7.346;2023-04-01T02:48:36;97075.77;;;6.92;84.83
71996;BME280;59862;47.732;7.346;2023-04-01T02:51:03;97056.64;;;6.73;85.46
71996;BME280;59862;47.732;7.346;2023-04-01T02:53:31;97036.61;;;6.59;86.10
71996;BME280;59862;47.732;7.346;2023-04-01T02:55:58;97077.41;;;6.45;87.09
71996;BME280;59862;47.732;7.346;2023-04-01T02:58:26;97074.48;;;6.36;88.08
71996;BME280;59862;47.732;7.346;2023-04-01T03:00:53;97069.23;;;6.28;88.42
71996;BME280;59862;47.732;7.346;2023-04-01T03:03:21;97071.25;;;6.22;89.30
71996;BME280;59862;47.732;7.346;2023-04-01T03:05:48;97068.47;;;6.19;90.06
71996;BME280;59862;47.732;7.346;2023-04-01T03:08:16;97051.31;;;6.18;90.71
71996;BME280;59862;47.732;7.346;2023-04-01T03:10:43;97055.65;;;6.19;91.19
71996;BME280;59862;47.732;7.346;2023-04-01T03:13:10;97050.63;;;6.20;91.62
71996;BME280;59862;47.732;7.346;2023-04-01T03:15:38;97059.27;;;6.22;91.88
71996;BME280;59862;47.732;7.346;2023-04-01T03:18:06;97053.14;;;6.21;92.15
71996;BME280;59862;47.732;7.346;2023-04-01T03:20:33;97063.41;;;6.24;92.42
71996;BME280;59862;47.732;7.346;2023-04-01T03:23:00;97057.28;;;6.24;92.52
71996;BME280;59862;47.732;7.346;2023-04-01T03:25:28;97064.70;;;6.28;92.65
71996;BME280;59862;47.732;7.346;2023-04-01T03:27:57;97063.06;;;6.27;92.74
71996;BME280;59862;47.732;7.346;2023-04-01T03:30:26;97074.83;;;6.33;92.85
71996;BME280;59862;47.732;7.346;2023-04-01T03:32:54;97084.84;;;6.31;92.77
71996;BME280;59862;47.732;7.346;2023-04-01T03:35:21;97098.16;;;6.31;92.70
71996;BME280;59862;47.732;7.346;2023-04-01T03:37:51;97084.68;;;6.32;92.66
71996;BME280;59862;47.732;7.346;2023-04-01T03:40:20;97076.05;;;6.30;92.75
71996;BME280;59862;47.732;7.346;2023-04-01T03:42:47;97074.83;;;6.33;92.92
71996;BME280;59862;47.732;7.346;2023-04-01T03:45:15;97062.16;;;6.35;93.10
71996;BME280;59862;47.732;7.346;2023-04-01T03:47:42;97052.87;;;6.31;93.15
71996;BME280;59862;47.732;7.346;2023-04-01T03:50:10;97044.23;;;6.29;93.24
71996;BME280;59862;47.732;7.346;2023-04-01T03:52:39;97040.58;;;6.30;93.33
71996;BME280;59862;47.732;7.346;2023-04-01T03:55:07;97039.28;;;6.26;93.40
71996;BME280;59862;47.732;7.346;2023-04-01T03:57:34;97046.94;;;6.25;93.39
71996;BME280;59862;47.732;7.346;2023-04-01T04:00:02;97042.75;;;6.26;93.46
71996;BME280;59862;47.732;7.346;2023-04-01T04:02:30;97045.41;;;6.26;93.13
71996;BME280;59862;47.732;7.346;2023-04-01T04:04:57;97052.08;;;6.26;93.02
71996;BME280;59862;47.732;7.346;2023-04-01T04:07:25;97044.92;;;6.27;92.82
71996;BME280;59862;47.732;7.346;2023-04-01T04:09:52;97045.56;;;6.29;92.67
71996;BME280;59862;47.732;7.346;2023-04-01T04:12:19;97044.08;;;6.30;92.77
71996;BME280;59862;47.732;7.346;2023-04-01T04:14:47;97035.97;;;6.24;92.57
71996;BME280;59862;47.732;7.346;2023-04-01T04:17:14;97032.62;;;6.26;92.32
71996;BME280;59862;47.732;7.346;2023-04-01T04:19:43;97033.27;;;6.28;92.20
71996;BME280;59862;47.732;7.346;2023-04-01T04:22:10;97027.41;;;6.28;91.81
71996;BME280;59862;47.732;7.346;2023-04-01T04:24:38;97027.25;;;6.30;91.79
71996;BME280;59862;47.732;7.346;2023-04-01T04:27:05;97029.23;;;6.32;91.63
71996;BME280;59862;47.732;7.346;2023-04-01T04:29:33;97027.90;;;6.32;91.42
71996;BME280;59862;47.732;7.346;2023-04-01T04:32:00;97026.57;;;6.32;91.22
71996;BME280;59862;47.732;7.346;2023-04-01T04:34:28;97021.73;;;6.31;91.26
71996;BME280;59862;47.732;7.346;2023-04-01T04:36:55;97011.88;;;6.36;91.11
71996;BME280;59862;47.732;7.346;2023-04-01T04:39:22;97010.19;;;6.39;90.87
71996;BME280;59862;47.732;7.346;2023-04-01T04:41:50;97006.69;;;6.38;90.61
71996;BME280;59862;47.732;7.346;2023-04-01T04:44:17;97009.81;;;6.42;90.46
71996;BME280;59862;47.732;7.346;2023-04-01T04:46:45;97016.61;;;6.44;90.25
71996;BME280;59862;47.732;7.346;2023-04-01T04:49:13;97011.78;;;6.44;90.30
71996;BME280;59862;47.732;7.346;2023-04-01T04:51:40;97013.77;;;6.46;90.36
71996;BME280;59862;47.732;7.346;2023-04-01T04:54:09;97013.07;;;6.48;90.21
71996;BME280;59862;47.732;7.346;2023-04-01T04:56:37;97013.11;;;6.44;90.47
71996;BME280;59862;47.732;7.346;2023-04-01T04:59:04;97005.36;;;6.38;91.04
71996;BME280;59862;47.732;7.346;2023-04-01T05:01:33;97013.20;;;6.36;91.43
71996;BME280;59862;47.732;7.346;2023-04-01T05:04:00;97005.71;;;6.35;91.61
71996;BME280;59862;47.732;7.346;2023-04-01T05:06:28;97011.00;;;6.39;91.41
71996;BME280;59862;47.732;7.346;2023-04-01T05:08:56;96996.48;;;6.42;91.45
71996;BME280;59862;47.732;7.346;2023-04-01T05:11:24;97010.83;;;6.41;91.34
71996;BME280;59862;47.732;7.346;2023-04-01T05:13:52;97001.17;;;6.40;91.15
71996;BME280;59862;47.732;7.346;2023-04-01T05:16:21;97002.46;;;6.44;91.07
71996;BME280;59862;47.732;7.346;2023-04-01T05:18:48;97018.45;;;6.44;90.96
71996;BME280;59862;47.732;7.346;2023-04-01T05:21:16;96996.78;;;6.47;90.94
71996;BME280;59862;47.732;7.346;2023-04-01T05:23:43;96991.95;;;6.46;90.85
71996;BME280;59862;47.732;7.346;2023-04-01T05:26:13;97003.69;;;6.56;90.74
71996;BME280;59862;47.732;7.346;2023-04-01T05:28:41;97005.97;;;6.59;90.70
71996;BME280;59862;47.732;7.346;2023-04-01T05:31:09;97000.78;;;6.61;90.25
71996;BME280;59862;47.732;7.346;2023-04-01T05:33:37;97007.64;;;6.60;90.25
71996;BME280;59862;47.732;7.346;2023-04-01T05:36:09;97007.68;;;6.56;90.08
71996;BME280;59862;47.732;7.346;2023-04-01T05:38:38;96999.00;;;6.58;89.95
71996;BME280;59862;47.732;7.346;2023-04-01T05:41:05;96996.14;;;6.59;89.91
71996;BME280;59862;47.732;7.346;2023-04-01T05:43:37;96994.31;;;6.60;89.87
71996;BME280;59862;47.732;7.346;2023-04-01T05:46:06;96996.92;;;6.64;89.66
71996;BME280;59862;47.732;7.346;2023-04-01T05:48:34;97001.21;;;6.69;89.40
71996;BME280;59862;47.732;7.346;2023-04-01T05:51:03;96994.16;;;6.72;89.12
71996;BME280;59862;47.732;7.346;2023-04-01T05:53:31;96991.64;;;6.74;88.80
71996;BME280;59862;47.732;7.346;2023-04-01T05:56:03;97001.11;;;6.77;88.48
71996;BME280;59862;47.732;7.346;2023-04-01T05:58:31;97011.23;;;6.81;88.21
71996;BME280;59862;47.732;7.346;2023-04-01T06:01:04;97004.06;;;6.82;88.09
71996;BME280;59862;47.732;7.346;2023-04-01T06:03:32;97012.61;;;6.77;88.67
71996;BME280;59862;47.732;7.346;2023-04-01T06:06:00;97023.53;;;6.68;89.16
71996;BME280;59862;47.732;7.346;2023-04-01T06:08:30;97021.56;;;6.66;89.83
71996;BME280;59862;47.732;7.346;2023-04-01T06:13:52;97003.04;;;6.54;90.94
71996;BME280;59862;47.732;7.346;2023-04-01T06:22:12;96995.49;;;6.43;91.15
71996;BME280;59862;47.732;7.346;2023-04-01T06:30:51;97000.53;;;6.38;92.14
71996;BME280;59862;47.732;7.346;2023-04-01T06:33:20;96990.16;;;6.43;92.25
71996;BME280;59862;47.732;7.346;2023-04-01T06:54:36;97005.16;;;6.73;91.15
71996;BME280;59862;47.732;7.346;2023-04-01T06:57:29;96998.80;;;6.74;90.83
71996;BME280;59862;47.732;7.346;2023-04-01T06:59:39;97004.13;;;6.74;90.78
71996;BME280;59862;47.732;7.346;2023-04-01T07:02:18;96991.09;;;6.79;90.34
71996;BME280;59862;47.732;7.346;2023-04-01T07:04:51;97001.34;;;6.86;88.95
71996;BME280;59862;47.732;7.346;2023-04-01T07:10:15;97013.58;;;6.95;88.74
71996;BME280;59862;47.732;7.346;2023-04-01T07:12:49;97006.86;;;6.99;88.70
71996;BME280;59862;47.732;7.346;2023-04-01T07:15:36;97016.44;;;7.04;88.61
71996;BME280;59862;47.732;7.346;2023-04-01T07:18:21;97021.22;;;7.09;88.22
71996;BME280;59862;47.732;7.346;2023-04-01T07:20:49;97015.33;;;7.13;88.02
71996;BME280;59862;47.732;7.346;2023-04-01T07:23:24;97025.59;;;7.20;87.49
71996;BME280;59862;47.732;7.346;2023-04-01T07:26:17;97015.06;;;7.23;87.63
71996;BME280;59862;47.732;7.346;2023-04-01T07:28:41;97031.20;;;7.25;87.99
71996;BME280;59862;47.732;7.346;2023-04-01T07:31:20;97019.61;;;7.18;88.55
71996;BME280;59862;47.732;7.346;2023-04-01T07:33:55;97040.03;;;7.11;88.97
71996;BME280;59862;47.732;7.346;2023-04-01T07:52:24;97043.59;;;7.08;88.65
71996;BME280;59862;47.732;7.346;2023-04-01T07:54:54;97036.63;;;7.17;88.03
71996;BME280;59862;47.732;7.346;2023-04-01T08:05:28;97039.31;;;7.28;87.23
71996;BME280;59862;47.732;7.346;2023-04-01T08:08:15;97047.85;;;7.27;87.99
71996;BME280;59862;47.732;7.346;2023-04-01T08:10:56;97047.85;;;7.27;88.02
71996;BME280;59862;47.732;7.346;2023-04-01T08:14:11;97054.52;;;7.27;87.65
71996;BME280;59862;47.732;7.346;2023-04-01T08:19:39;97061.25;;;7.23;88.28
71996;BME280;59862;47.732;7.346;2023-04-01T08:22:04;97064.91;;;7.22;88.45
71996;BME280;59862;47.732;7.346;2023-04-01T08:24:42;97054.52;;;7.27;87.95
71996;BME280;59862;47.732;7.346;2023-04-01T08:27:24;97056.50;;;7.29;87.68
71996;BME280;59862;47.732;7.346;2023-04-01T08:29:46;97069.14;;;7.31;87.60
71996;BME280;59862;47.732;7.346;2023-04-01T08:32:15;97049.44;;;7.32;87.36
71996;BME280;59862;47.732;7.346;2023-04-01T08:34:46;97059.75;;;7.35;87.86
71996;BME280;59862;47.732;7.346;2023-04-01T08:37:15;97055.25;;;7.36;88.10
71996;BME280;59862;47.732;7.346;2023-04-01T08:39:50;97065.53;;;7.39;87.74
71996;BME280;59862;47.732;7.346;2023-04-01T08:42:29;97063.33;;;7.42;87.56
71996;BME280;59862;47.732;7.346;2023-04-01T08:53:48;97068.44;;;7.58;86.87
71996;BME280;59862;47.732;7.346;2023-04-01T08:59:29;97064.60;;;7.82;85.64
71996;BME280;59862;47.732;7.346;2023-04-01T09:05:09;97070.05;;;8.10;85.20
71996;BME280;59862;47.732;7.346;2023-04-01T09:08:08;97071.75;;;8.17;83.95
71996;BME280;59862;47.732;7.346;2023-04-01T09:10:49;97059.93;;;8.16;83.73
71996;BME280;59862;47.732;7.346;2023-04-01T09:13:47;97072.95;;;8.15;83.37
71996;BME280;59862;47.732;7.346;2023-04-01T09:19:33;97077.39;;;8.33;82.56
71996;BME280;59862;47.732;7.346;2023-04-01T09:22:17;97071.66;;;8.47;81.92
71996;BME280;59862;47.732;7.346;2023-04-01T09:43:27;97088.02;;;8.37;82.13
71996;BME280;59862;47.732;7.346;2023-04-01T09:46:09;97091.52;;;8.37;82.83
71996;BME280;59862;47.732;7.346;2023-04-01T09:51:51;97099.84;;;8.28;82.91
71996;BME280;59862;47.732;7.346;2023-04-01T09:54:29;97109.23;;;8.24;83.25
71996;BME280;59862;47.732;7.346;2023-04-01T10:19:50;97127.59;;;8.12;84.59
71996;BME280;59862;47.732;7.346;2023-04-01T10:22:37;97126.16;;;8.10;85.44
71996;BME280;59862;47.732;7.346;2023-04-01T10:36:09;97133.57;;;8.04;86.85
71996;BME280;59862;47.732;7.346;2023-04-01T10:50:04;97127.77;;;7.90;86.40
71996;BME280;59862;47.732;7.346;2023-04-01T11:15:06;97130.39;;;8.61;85.13
71996;BME280;59862;47.732;7.346;2023-04-01T11:26:38;97138.34;;;9.03;83.24
71996;BME280;59862;47.732;7.346;2023-04-01T11:37:08;97133.49;;;9.13;81.56
71996;BME280;59862;47.732;7.346;2023-04-01T11:42:24;97130.10;;;8.77;83.15
71996;BME280;59862;47.732;7.346;2023-04-01T11:53:41;97126.27;;;8.86;84.22
71996;BME280;59862;47.732;7.346;2023-04-01T12:01:39;97131.33;;;8.85;85.96
71996;BME280;59862;47.732;7.346;2023-04-01T12:04:16;97135.08;;;8.80;85.01
71996;BME280;59862;47.732;7.346;2023-04-01T12:06:43;97126.80;;;8.75;85.09
71996;BME280;59862;47.732;7.346;2023-04-01T12:09:30;97123.55;;;8.80;84.89
71996;BME280;59862;47.732;7.346;2023-04-01T12:20:28;97134.14;;;8.94;86.36
71996;BME280;59862;47.732;7.346;2023-04-01T12:31:25;97118.09;;;9.80;81.05
71996;BME280;59862;47.732;7.346;2023-04-01T12:34:22;97119.07;;;9.89;79.07
71996;BME280;59862;47.732;7.346;2023-04-01T12:50:28;97114.80;;;11.30;73.65
71996;BME280;59862;47.732;7.346;2023-04-01T12:53:35;97115.44;;;11.96;71.84
71996;BME280;59862;47.732;7.346;2023-04-01T12:56:03;97107.88;;;12.40;70.21
71996;BME280;59862;47.732;7.346;2023-04-01T12:58:52;97098.61;;;12.76;67.57
71996;BME280;59862;47.732;7.346;2023-04-01T13:04:20;97103.94;;;12.42;66.47
71996;BME280;59862;47.732;7.346;2023-04-01T13:12:40;97110.42;;;12.90;60.70
71996;BME280;59862;47.732;7.346;2023-04-01T13:15:19;97115.39;;;12.47;61.47
71996;BME280;59862;47.732;7.346;2023-04-01T13:18:10;97110.67;;;12.20;62.39
71996;BME280;59862;47.732;7.346;2023-04-01T13:26:29;97114.41;;;12.35;63.13
71996;BME280;59862;47.732;7.346;2023-04-01T13:29:04;97107.00;;;12.46;63.33
71996;BME280;59862;47.732;7.346;2023-04-01T13:32:01;97107.83;;;12.08;64.76
71996;BME280;59862;47.732;7.346;2023-04-01T13:37:18;97108.40;;;11.66;64.70
71996;BME280;59862;47.732;7.346;2023-04-01T13:42:43;97110.98;;;11.15;63.85
71996;BME280;59862;47.732;7.346;2023-04-01T13:45:17;97104.20;;;11.00;66.17
71996;BME280;59862;47.732;7.346;2023-04-01T13:48:11;97106.06;;;10.93;67.37
71996;BME280;59862;47.732;7.346;2023-04-01T13:59:32;97100.80;;;9.82;76.99
71996;BME280;59862;47.732;7.346;2023-04-01T14:07:48;97163.84;;;8.99;77.83
71996;BME280;59862;47.732;7.346;2023-04-01T14:10:31;97166.43;;;8.44;82.53
71996;BME280;59862;47.732;7.346;2023-04-01T14:13:04;97155.48;;;8.14;85.33
71996;BME280;59862;47.732;7.346;2023-04-01T14:21:07;97138.29;;;8.48;86.42
71996;BME280;59862;47.732;7.346;2023-04-01T14:24:45;97124.71;;;8.60;84.31
71996;BME280;59862;47.732;7.346;2023-04-01T14:26:59;97122.09;;;8.67;82.39
71996;BME280;59862;47.732;7.346;2023-04-01T14:29:52;97123.17;;;8.83;80.35
71996;BME280;59862;47.732;7.346;2023-04-01T14:35:17;97124.50;;;9.10;77.68
71996;BME280;59862;47.732;7.346;2023-04-01T14:38:11;97118.28;;;9.21;78.19
71996;BME280;59862;47.732;7.346;2023-04-01T14:49:23;97121.78;;;9.96;73.82
71996;BME280;59862;47.732;7.346;2023-04-01T14:51:52;97117.97;;;10.31;73.32
71996;BME280;59862;47.732;7.346;2023-04-01T14:54:40;97118.00;;;10.51;71.31
71996;BME280;59862;47.732;7.346;2023-04-01T14:57:15;97114.11;;;10.80;69.29
71996;BME280;59862;47.732;7.346;2023-04-01T14:59:53;97112.26;;;11.06;68.41
71996;BME280;59862;47.732;7.346;2023-04-01T15:02:28;97111.20;;;11.14;68.03
71996;BME280;59862;47.732;7.346;2023-04-01T15:07:45;97114.93;;;11.68;68.16
71996;BME280;59862;47.732;7.346;2023-04-01T15:16:10;97119.14;;;11.79;66.69
71996;BME280;59862;47.732;7.346;2023-04-01T15:21:49;97111.22;;;11.97;66.66
71996;BME280;59862;47.732;7.346;2023-04-01T15:24:26;97112.98;;;12.16;69.45
71996;BME280;59862;47.732;7.346;2023-04-01T15:27:02;97117.88;;;11.88;67.33
71996;BME280;59862;47.732;7.346;2023-04-01T15:35:34;97108.47;;;11.40;69.01
71996;BME280;59862;47.732;7.346;2023-04-01T15:43:44;97113.31;;;11.47;67.77
71996;BME280;59862;47.732;7.346;2023-04-01T16:02:45;97122.14;;;12.02;65.14
71996;BME280;59862;47.732;7.346;2023-04-01T16:27:13;97113.02;;;11.33;67.35
71996;BME280;59862;47.732;7.346;2023-04-01T16:29:48;97127.66;;;11.50;66.49
71996;BME280;59862;47.732;7.346;2023-04-01T16:35:23;97140.25;;;11.63;64.96
71996;BME280;59862;47.732;7.346;2023-04-01T16:38:01;97141.93;;;11.44;63.86
71996;BME280;59862;47.732;7.346;2023-04-01T16:46:17;97147.88;;;11.17;64.80
71996;BME280;59862;47.732;7.346;2023-04-01T16:48:57;97148.50;;;11.13;64.83
71996;BME280;59862;47.732;7.346;2023-04-01T16:51:21;97152.09;;;11.03;65.12
71996;BME280;59862;47.732;7.346;2023-04-01T16:54:05;97163.05;;;10.95;66.28
71996;BME280;59862;47.732;7.346;2023-04-01T16:57:45;97157.05;;;10.80;66.37
71996;BME280;59862;47.732;7.346;2023-04-01T16:59:21;97169.11;;;10.66;66.75
71996;BME280;59862;47.732;7.346;2023-04-01T17:12:35;97185.55;;;10.14;68.60
71996;BME280;59862;47.732;7.346;2023-04-01T17:15:21;97179.63;;;9.84;70.27
71996;BME280;59862;47.732;7.346;2023-04-01T17:20:47;97186.64;;;9.51;72.27
71996;BME280;59862;47.732;7.346;2023-04-01T17:23:53;97190.98;;;9.35;72.95
71996;BME280;59862;47.732;7.346;2023-04-01T17:31:26;97187.89;;;9.10;72.02
71996;BME280;59862;47.732;7.346;2023-04-01T17:36:52;97192.89;;;9.02;71.58
71996;BME280;59862;47.732;7.346;2023-04-01T17:39:47;97202.56;;;9.03;71.54
71996;BME280;59862;47.732;7.346;2023-04-01T17:42:31;97216.14;;;9.02;71.89
71996;BME280;59862;47.732;7.346;2023-04-01T17:50:34;97210.39;;;8.94;73.53
71996;BME280;59862;47.732;7.346;2023-04-01T17:53:09;97214.88;;;8.98;74.12
71996;BME280;59862;47.732;7.346;2023-04-01T17:58:39;97212.15;;;8.70;75.92
71996;BME280;59862;47.732;7.346;2023-04-01T18:01:16;97218.92;;;8.41;76.84
71996;BME280;59862;47.732;7.346;2023-04-01T18:04:05;97213.71;;;8.18;78.16
71996;BME280;59862;47.732;7.346;2023-04-01T18:12:29;97225.84;;;7.96;77.44
71996;BME280;59862;47.732;7.346;2023-04-01T18:15:15;97214.52;;;7.94;77.52
71996;BME280;59862;47.732;7.346;2023-04-01T18:24:11;97200.25;;;7.87;77.07
71996;BME280;59862;47.732;7.346;2023-04-01T18:26:37;97201.92;;;7.88;77.22
71996;BME280;59862;47.732;7.346;2023-04-01T18:31:48;97211.41;;;7.90;77.26
71996;BME280;59862;47.732;7.346;2023-04-01T18:37:18;97226.55;;;7.94;77.14
71996;BME280;59862;47.732;7.346;2023-04-01T18:39:47;97237.87;;;7.96;76.98
71996;BME280;59862;47.732;7.346;2023-04-01T18:43:00;97242.37;;;7.95;77.21
71996;BME280;59862;47.732;7.346;2023-04-01T18:45:32;97245.09;;;7.91;77.16
71996;BME280;59862;47.732;7.346;2023-04-01T18:51:01;97247.03;;;7.83;77.36
71996;BME280;59862;47.732;7.346;2023-04-01T18:53:44;97259.11;;;7.79;77.85
71996;BME280;59862;47.732;7.346;2023-04-01T18:56:15;97262.83;;;7.74;77.30
71996;BME280;59862;47.732;7.346;2023-04-01T19:01:37;97276.27;;;7.65;78.20
71996;BME280;59862;47.732;7.346;2023-04-01T19:04:22;97271.33;;;7.58;78.20
71996;BME280;59862;47.732;7.346;2023-04-01T19:06:56;97277.59;;;7.51;78.43
71996;BME280;59862;47.732;7.346;2023-04-01T19:09:32;97271.47;;;7.46;78.67
71996;BME280;59862;47.732;7.346;2023-04-01T19:12:29;97279.13;;;7.45;78.76
71996;BME280;59862;47.732;7.346;2023-04-01T19:15:15;97281.88;;;7.37;79.09
71996;BME280;59862;47.732;7.346;2023-04-01T19:20:57;97290.81;;;7.26;79.86
71996;BME280;59862;47.732;7.346;2023-04-01T19:28:54;97291.12;;;7.12;79.97
71996;BME280;59862;47.732;7.346;2023-04-01T19:37:02;97288.98;;;7.08;80.40
71996;BME280;59862;47.732;7.346;2023-04-01T19:44:48;97298.75;;;7.15;80.46
71996;BME280;59862;47.732;7.346;2023-04-01T19:50:27;97306.59;;;7.13;80.64
71996;BME280;59862;47.732;7.346;2023-04-01T19:52:58;97317.42;;;7.15;80.79
71996;BME280;59862;47.732;7.346;2023-04-01T20:00:40;97327.44;;;7.13;81.06
71996;BME280;59862;47.732;7.346;2023-04-01T20:08:50;97333.39;;;7.23;80.87
71996;BME280;59862;47.732;7.346;2023-04-01T20:14:13;97336.09;;;7.15;80.89
71996;BME280;59862;47.732;7.346;2023-04-01T20:17:01;97333.92;;;7.15;80.83
71996;BME280;59862;47.732;7.346;2023-04-01T20:19:33;97332.78;;;7.13;80.94
71996;BME280;59862;47.732;7.346;2023-04-01T20:21:59;97335.94;;;7.17;81.03
71996;BME280;59862;47.732;7.346;2023-04-01T20:24:43;97340.71;;;7.21;81.11
71996;BME280;59862;47.732;7.346;2023-04-01T20:30:42;97347.72;;;7.22;81.31
71996;BME280;59862;47.732;7.346;2023-04-01T20:32:39;97351.38;;;7.25;81.35
71996;BME280;59862;47.732;7.346;2023-04-01T20:35:25;97357.48;;;7.30;81.50
71996;BME280;59862;47.732;7.346;2023-04-01T20:38:13;97364.50;;;7.31;81.81
71996;BME280;59862;47.732;7.346;2023-04-01T20:40:47;97362.17;;;7.32;82.09
71996;BME280;59862;47.732;7.346;2023-04-01T20:46:19;97374.06;;;7.25;82.62
71996;BME280;59862;47.732;7.346;2023-04-01T20:49:20;97374.41;;;7.22;82.76
71996;BME280;59862;47.732;7.346;2023-04-01T20:51:37;97373.91;;;7.23;82.76
71996;BME280;59862;47.732;7.346;2023-04-01T20:54:30;97385.02;;;7.30;82.84
71996;BME280;59862;47.732;7.346;2023-04-01T20:57:05;97380.05;;;7.27;82.77
71996;BME280;59862;47.732;7.346;2023-04-01T21:05:27;97378.34;;;7.08;83.94
71996;BME280;59862;47.732;7.346;2023-04-01T21:16:13;97399.61;;;6.89;84.99
71996;BME280;59862;47.732;7.346;2023-04-01T21:18:57;97405.59;;;6.91;84.84
71996;BME280;59862;47.732;7.346;2023-04-01T21:21:32;97407.61;;;6.89;84.55
71996;BME280;59862;47.732;7.346;2023-04-01T21:26:54;97408.97;;;6.85;85.38
71996;BME280;59862;47.732;7.346;2023-04-01T21:32:34;97408.13;;;6.84;86.02
71996;BME280;59862;47.732;7.346;2023-04-01T21:38:10;97416.50;;;6.81;86.70
71996;BME280;59862;47.732;7.346;2023-04-01T21:49:10;97404.92;;;6.58;87.04
71996;BME280;59862;47.732;7.346;2023-04-01T21:57:09;97413.73;;;6.63;86.65
71996;BME280;59862;47.732;7.346;2023-04-01T22:05:19;97408.28;;;6.52;86.32
71996;BME280;59862;47.732;7.346;2023-04-01T22:10:29;97413.62;;;6.48;86.22